createdAt,value
2023-12-26T00:00:34.689Z,65.40
2023-12-26T00:03:04.484Z,65.40
2023-12-26T00:05:37.450Z,65.30
2023-12-26T00:08:06.435Z,65.40
2023-12-26T00:10:35.775Z,65.30
2023-12-26T00:13:04.797Z,65.40
2023-12-26T00:15:33.867Z,65.40
2023-12-26T00:18:03.543Z,65.40
2023-12-26T00:20:32.797Z,65.40
2023-12-26T00:23:02.361Z,65.40
2023-12-26T00:25:31.456Z,65.30
2023-12-26T00:28:00.985Z,65.30
2023-12-26T00:30:30.265Z,65.40
2023-12-26T00:32:59.570Z,65.40
2023-12-26T00:35:29.692Z,65.30
2023-12-26T00:37:58.718Z,65.90
2023-12-26T00:40:27.206Z,65.40
2023-12-26T00:42:56.981Z,65.30
2023-12-26T00:45:26.154Z,65.30
2023-12-26T00:47:56.820Z,65.30
2023-12-26T00:50:25.514Z,65.30
2023-12-26T00:52:55.050Z,65.90
2023-12-26T00:55:24.615Z,65.30
2023-12-26T00:57:53.036Z,65.30
2023-12-26T01:00:22.097Z,65.30
2023-12-26T01:02:51.142Z,65.30
2023-12-26T01:05:19.845Z,65.30
2023-12-26T01:07:49.069Z,65.20
2023-12-26T01:10:18.386Z,65.20
2023-12-26T01:12:47.672Z,65.20
2023-12-26T01:15:16.331Z,65.20
2023-12-26T01:17:46.042Z,65.20
2023-12-26T01:20:14.692Z,65.20
2023-12-26T01:22:44.178Z,65.20
2023-12-26T01:25:13.242Z,65.20
2023-12-26T01:27:42.182Z,65.20
2023-12-26T01:30:10.776Z,65.20
2023-12-26T01:32:40.239Z,65.20
2023-12-26T01:35:08.772Z,65.20
2023-12-26T01:37:37.261Z,65.10
2023-12-26T01:40:05.809Z,65.20
2023-12-26T01:42:34.763Z,65.10
2023-12-26T01:45:03.795Z,65.10
2023-12-26T01:47:32.889Z,65.10
2023-12-26T01:50:01.501Z,65.20
2023-12-26T01:52:30.432Z,65.10
2023-12-26T01:54:59.342Z,65.10
2023-12-26T01:57:28.974Z,65.00
2023-12-26T01:59:58.537Z,65.10
2023-12-26T02:02:28.448Z,65.50
2023-12-26T02:04:57.441Z,65.00
2023-12-26T02:07:26.986Z,65.00
2023-12-26T02:09:56.036Z,65.10
2023-12-26T02:12:25.685Z,65.00
2023-12-26T02:14:55.574Z,64.90
2023-12-26T02:17:24.697Z,65.00
2023-12-26T02:19:53.455Z,64.90
2023-12-26T02:22:24.119Z,64.90
2023-12-26T02:24:53.246Z,64.90
2023-12-26T02:27:21.929Z,64.90
2023-12-26T02:29:50.767Z,64.90
2023-12-26T02:32:18.748Z,64.90
2023-12-26T02:34:47.882Z,64.80
2023-12-26T02:37:17.046Z,64.80
2023-12-26T02:39:46.923Z,64.70
2023-12-26T02:42:15.963Z,64.80
2023-12-26T02:44:45.090Z,64.70
2023-12-26T02:47:14.187Z,64.70
2023-12-26T02:49:43.557Z,65.20
2023-12-26T02:52:12.248Z,64.60
2023-12-26T02:54:41.634Z,64.60
2023-12-26T02:57:10.774Z,64.50
2023-12-26T02:59:39.782Z,64.50
2023-12-26T03:02:08.683Z,64.50
2023-12-26T03:04:37.164Z,64.50
2023-12-26T03:07:06.332Z,64.60
2023-12-26T03:09:35.816Z,64.50
2023-12-26T03:12:04.444Z,64.50
2023-12-26T03:14:32.438Z,64.50
2023-12-26T03:17:02.011Z,64.50
2023-12-26T03:19:30.676Z,64.50
2023-12-26T03:21:59.890Z,64.50
2023-12-26T03:24:28.565Z,64.70
2023-12-26T03:26:57.653Z,64.40
2023-12-26T03:29:26.740Z,64.40
2023-12-26T03:31:55.836Z,64.40
2023-12-26T03:34:25.011Z,64.40
2023-12-26T03:36:54.199Z,64.40
2023-12-26T03:39:23.253Z,64.40
2023-12-26T03:41:52.246Z,64.40
2023-12-26T03:44:21.684Z,64.30
2023-12-26T03:46:50.152Z,64.30
2023-12-26T03:49:19.756Z,64.40
2023-12-26T03:51:48.501Z,64.30
2023-12-26T03:54:17.607Z,64.30
2023-12-26T03:56:46.800Z,64.30
2023-12-26T03:59:15.815Z,64.30
2023-12-26T04:01:44.936Z,64.30
2023-12-26T04:04:14.254Z,64.30
2023-12-26T04:06:43.471Z,64.30
2023-12-26T04:09:12.531Z,64.20
2023-12-26T04:11:41.664Z,64.20
2023-12-26T04:14:09.995Z,64.10
2023-12-26T04:16:41.628Z,64.10
2023-12-26T04:19:12.305Z,64.20
2023-12-26T04:21:41.019Z,64.10
2023-12-26T04:24:10.602Z,64.10
2023-12-26T04:26:39.662Z,64.00
2023-12-26T04:29:09.277Z,64.00
2023-12-26T04:31:39.099Z,64.00
2023-12-26T04:34:08.307Z,64.00
2023-12-26T04:36:37.455Z,63.90
2023-12-26T04:39:06.495Z,63.80
2023-12-26T04:41:35.683Z,63.80
2023-12-26T04:44:04.715Z,63.70
2023-12-26T04:46:33.680Z,63.70
2023-12-26T04:49:03.283Z,63.60
2023-12-26T04:51:32.548Z,63.60
2023-12-26T04:54:02.446Z,63.60
2023-12-26T04:56:31.616Z,63.60
2023-12-26T04:59:00.694Z,63.50
2023-12-26T05:01:29.850Z,63.50
2023-12-26T05:03:58.985Z,63.50
2023-12-26T05:06:27.975Z,63.50
2023-12-26T05:08:57.073Z,63.50
2023-12-26T05:11:26.612Z,63.50
2023-12-26T05:13:55.292Z,63.50
2023-12-26T05:16:23.178Z,63.40
2023-12-26T05:18:52.134Z,63.50
2023-12-26T05:21:21.800Z,63.40
2023-12-26T05:23:51.651Z,63.40
2023-12-26T05:26:20.645Z,63.40
2023-12-26T05:28:50.400Z,63.40
2023-12-26T05:31:19.652Z,63.40
2023-12-26T05:33:49.202Z,63.50
2023-12-26T05:36:17.928Z,63.40
2023-12-26T05:38:47.083Z,63.40
2023-12-26T05:41:16.334Z,63.40
2023-12-26T05:43:45.113Z,63.40
2023-12-26T05:46:14.007Z,63.40
2023-12-26T05:48:43.932Z,63.40
2023-12-26T05:51:12.953Z,63.40
2023-12-26T05:53:42.138Z,63.40
2023-12-26T05:56:11.595Z,63.40
2023-12-26T05:58:40.691Z,63.30
2023-12-26T06:01:09.427Z,63.30
2023-12-26T06:03:38.345Z,63.20
2023-12-26T06:06:07.976Z,63.10
2023-12-26T06:08:37.237Z,63.10
2023-12-26T06:11:06.354Z,63.10
2023-12-26T06:13:35.383Z,63.00
2023-12-26T06:16:04.486Z,63.00
2023-12-26T06:18:34.497Z,62.90
2023-12-26T06:21:03.694Z,62.90
2023-12-26T06:23:32.733Z,63.00
2023-12-26T06:26:01.738Z,63.00
2023-12-26T06:28:30.938Z,63.00
2023-12-26T06:31:00.194Z,63.00
2023-12-26T06:33:30.207Z,63.00
2023-12-26T06:35:59.055Z,62.90
2023-12-26T06:38:28.040Z,62.90
2023-12-26T06:40:59.723Z,62.90
2023-12-26T06:43:28.740Z,62.90
2023-12-26T06:45:57.858Z,62.90
2023-12-26T06:48:27.835Z,62.90
2023-12-26T06:50:56.523Z,62.90
2023-12-26T06:53:25.570Z,62.80
2023-12-26T06:55:54.199Z,62.90
2023-12-26T06:58:23.374Z,62.80
2023-12-26T07:00:52.632Z,62.80
2023-12-26T07:03:21.318Z,62.80
2023-12-26T07:05:51.041Z,62.80
2023-12-26T07:08:20.118Z,62.70
2023-12-26T07:10:49.657Z,62.70
2023-12-26T07:13:19.048Z,62.70
2023-12-26T07:15:48.611Z,62.70
2023-12-26T07:18:17.721Z,62.60
2023-12-26T07:20:47.248Z,62.60
2023-12-26T07:23:16.403Z,62.60
2023-12-26T07:25:45.862Z,62.60
2023-12-26T07:28:14.795Z,62.50
2023-12-26T07:30:44.350Z,62.50
2023-12-26T07:33:14.025Z,62.50
2023-12-26T07:35:43.147Z,62.50
2023-12-26T07:38:12.690Z,62.50
2023-12-26T07:40:42.259Z,62.50
2023-12-26T07:43:11.738Z,62.40
2023-12-26T07:45:41.274Z,62.40
2023-12-26T07:48:10.500Z,62.40
2023-12-26T07:50:39.926Z,62.30
2023-12-26T07:53:09.504Z,62.30
2023-12-26T07:55:38.574Z,62.30
2023-12-26T07:58:07.613Z,62.30
2023-12-26T08:00:37.249Z,62.20
2023-12-26T08:03:06.816Z,62.20
2023-12-26T08:05:36.397Z,62.10
2023-12-26T08:08:05.904Z,62.10
2023-12-26T08:10:34.830Z,62.00
2023-12-26T08:13:04.378Z,62.00
2023-12-26T08:15:34.329Z,61.90
2023-12-26T08:18:04.035Z,61.80
2023-12-26T08:20:33.638Z,61.80
2023-12-26T08:23:02.844Z,61.70
2023-12-26T08:25:31.877Z,61.60
2023-12-26T08:28:01.509Z,61.50
2023-12-26T08:30:31.896Z,61.30
2023-12-26T08:33:02.207Z,61.30
2023-12-26T08:35:31.680Z,61.20
2023-12-26T08:38:01.267Z,61.10
2023-12-26T08:40:30.488Z,60.90
2023-12-26T08:42:59.218Z,60.80
2023-12-26T08:45:27.682Z,60.70
2023-12-26T08:47:57.291Z,60.50
2023-12-26T08:50:26.836Z,60.20
2023-12-26T08:52:56.472Z,60.00
2023-12-26T08:55:25.994Z,59.80
2023-12-26T08:57:55.399Z,59.70
2023-12-26T09:00:24.591Z,59.50
2023-12-26T09:03:00.231Z,59.30
2023-12-26T09:05:35.748Z,59.00
2023-12-26T09:08:05.338Z,58.60
2023-12-26T09:10:34.798Z,58.50
2023-12-26T09:13:04.028Z,58.30
2023-12-26T09:15:32.906Z,58.20
2023-12-26T09:18:02.419Z,58.20
2023-12-26T09:20:31.774Z,58.20
2023-12-26T09:23:01.377Z,58.10
2023-12-26T09:25:30.497Z,58.10
2023-12-26T09:28:00.248Z,58.20
2023-12-26T09:30:29.310Z,58.20
2023-12-26T09:32:58.688Z,58.20
2023-12-26T09:35:28.355Z,57.80
2023-12-26T09:37:57.444Z,57.50
2023-12-26T09:40:26.970Z,57.00
2023-12-26T09:42:56.517Z,56.60
2023-12-26T09:45:25.722Z,56.20
2023-12-26T09:47:55.473Z,55.80
2023-12-26T09:50:25.101Z,55.50
2023-12-26T09:52:54.552Z,55.00
2023-12-26T09:55:23.879Z,54.70
2023-12-26T09:57:53.342Z,54.50
2023-12-26T10:00:23.623Z,54.20
2023-12-26T10:02:54.473Z,53.90
2023-12-26T10:05:23.664Z,53.60
2023-12-26T10:07:53.286Z,53.30
2023-12-26T10:10:22.768Z,53.00
2023-12-26T10:12:51.875Z,52.60
2023-12-26T10:15:21.606Z,52.30
2023-12-26T10:17:51.271Z,52.00
2023-12-26T10:20:20.989Z,51.50
2023-12-26T10:22:50.406Z,51.20
2023-12-26T10:25:19.931Z,50.70
2023-12-26T10:27:49.650Z,50.10
2023-12-26T10:30:19.279Z,49.70
2023-12-26T10:32:47.765Z,49.40
2023-12-26T10:35:17.344Z,48.80
2023-12-26T10:37:47.022Z,48.30
2023-12-26T10:40:16.219Z,48.00
2023-12-26T10:42:44.600Z,47.60
2023-12-26T10:45:14.005Z,47.20
2023-12-26T10:47:43.490Z,46.90
2023-12-26T10:50:12.486Z,46.40
2023-12-26T10:52:42.294Z,46.50
2023-12-26T10:55:30.043Z,46.50
2023-12-26T10:57:59.249Z,46.30
2023-12-26T11:00:45.812Z,45.80
2023-12-26T11:03:33.385Z,45.40
2023-12-26T11:06:21.223Z,45.00
2023-12-26T11:09:08.224Z,44.80
2023-12-26T11:11:56.484Z,44.30
2023-12-26T11:14:44.990Z,44.00
2023-12-26T11:17:32.200Z,43.50
2023-12-26T11:20:19.397Z,44.00
2023-12-26T11:23:07.011Z,44.10
2023-12-26T11:25:54.348Z,44.20
2023-12-26T11:28:57.460Z,44.80
2023-12-26T11:31:45.210Z,45.30
2023-12-26T11:34:33.124Z,45.80
2023-12-26T11:37:20.924Z,46.40
2023-12-26T11:40:07.632Z,47.00
2023-12-26T11:42:54.518Z,47.60
2023-12-26T11:45:42.014Z,48.00
2023-12-26T11:48:29.862Z,48.60
2023-12-26T11:51:17.019Z,49.00
2023-12-26T11:54:04.375Z,49.40
2023-12-26T11:56:51.636Z,49.80
2023-12-26T11:59:38.652Z,50.20
2023-12-26T12:02:25.474Z,50.60
2023-12-26T12:05:13.338Z,50.90
2023-12-26T12:08:01.128Z,51.20
2023-12-26T12:10:48.702Z,51.50
2023-12-26T12:13:36.432Z,51.70
2023-12-26T12:16:24.234Z,52.00
2023-12-26T12:19:12.316Z,52.30
2023-12-26T12:22:00.090Z,52.40
2023-12-26T12:24:47.917Z,52.70
2023-12-26T12:27:35.765Z,52.80
2023-12-26T12:30:23.595Z,53.00
2023-12-26T12:33:11.560Z,53.20
2023-12-26T12:35:59.119Z,53.30
2023-12-26T12:38:46.564Z,53.50
2023-12-26T12:41:33.574Z,53.60
2023-12-26T12:44:21.596Z,53.80
2023-12-26T12:47:09.037Z,54.00
2023-12-26T12:49:56.083Z,54.10
2023-12-26T12:52:43.888Z,54.20
2023-12-26T12:55:31.567Z,54.30
2023-12-26T12:58:19.269Z,54.40
2023-12-26T13:01:07.007Z,54.50
2023-12-26T13:03:54.809Z,54.60
2023-12-26T13:06:42.121Z,54.80
2023-12-26T13:09:29.299Z,54.80
2023-12-26T13:12:16.386Z,54.80
2023-12-26T13:15:04.234Z,54.90
2023-12-26T13:17:52.065Z,55.00
2023-12-26T13:20:39.696Z,55.00
2023-12-26T13:23:27.338Z,55.10
2023-12-26T13:26:15.088Z,55.10
2023-12-26T13:29:02.460Z,55.20
2023-12-26T13:31:50.121Z,55.20
2023-12-26T13:34:37.514Z,55.30
2023-12-26T13:37:24.901Z,55.30
2023-12-26T13:40:12.602Z,55.30
2023-12-26T13:43:00.161Z,55.30
2023-12-26T13:45:48.185Z,55.40
2023-12-26T13:48:35.803Z,55.30
2023-12-26T13:51:23.250Z,55.50
2023-12-26T13:54:11.471Z,55.40
2023-12-26T13:56:40.861Z,55.50
2023-12-26T13:59:09.986Z,55.40
2023-12-26T14:01:39.572Z,55.30
2023-12-26T14:04:08.976Z,55.30
2023-12-26T14:06:39.019Z,55.30
2023-12-26T14:09:08.232Z,55.40
2023-12-26T14:11:37.029Z,55.40
2023-12-26T14:14:05.909Z,55.40
2023-12-26T14:16:35.321Z,55.40
2023-12-26T14:19:04.481Z,55.50
2023-12-26T14:21:35.024Z,55.60
2023-12-26T14:24:05.362Z,55.60
2023-12-26T14:26:34.233Z,55.70
2023-12-26T14:29:03.696Z,55.70
2023-12-26T14:31:33.162Z,55.70
2023-12-26T14:34:03.022Z,55.80
2023-12-26T14:36:32.293Z,55.80
2023-12-26T14:39:01.913Z,55.80
2023-12-26T14:41:30.883Z,55.80
2023-12-26T14:44:00.636Z,55.80
2023-12-26T14:46:30.053Z,55.80
2023-12-26T14:48:59.419Z,56.50
2023-12-26T14:51:28.329Z,55.90
2023-12-26T14:53:57.580Z,56.00
2023-12-26T14:56:27.102Z,56.00
2023-12-26T14:58:56.675Z,56.00
2023-12-26T15:01:25.980Z,56.00
2023-12-26T15:03:55.680Z,56.10
2023-12-26T15:06:24.857Z,56.10
2023-12-26T15:08:54.434Z,56.20
2023-12-26T15:11:23.888Z,56.10
2023-12-26T15:14:05.271Z,56.10
2023-12-26T15:16:42.044Z,56.10
2023-12-26T15:19:11.765Z,56.20
2023-12-26T15:21:41.385Z,56.30
2023-12-26T15:24:11.115Z,56.40
2023-12-26T15:26:40.165Z,56.40
2023-12-26T15:29:09.693Z,56.40
2023-12-26T15:31:38.905Z,56.40
2023-12-26T15:34:08.823Z,56.40
2023-12-26T15:36:38.544Z,56.40
2023-12-26T15:39:12.185Z,56.50
2023-12-26T15:41:42.042Z,56.60
2023-12-26T15:44:11.202Z,56.60
2023-12-26T15:46:40.922Z,56.70
2023-12-26T15:49:10.211Z,56.60
2023-12-26T15:51:39.425Z,56.60
2023-12-26T15:54:08.535Z,56.50
2023-12-26T15:56:37.628Z,56.50
2023-12-26T15:59:06.787Z,56.50
2023-12-26T16:01:36.300Z,56.60
2023-12-26T16:04:06.006Z,56.60
2023-12-26T16:06:35.684Z,56.60
2023-12-26T16:09:04.923Z,56.60
2023-12-26T16:11:33.276Z,56.70
2023-12-26T16:14:02.294Z,56.60
2023-12-26T16:16:31.796Z,56.70
2023-12-26T16:19:01.141Z,56.60
2023-12-26T16:21:29.637Z,56.70
2023-12-26T16:23:59.292Z,56.70
2023-12-26T16:26:28.388Z,56.80
2023-12-26T16:28:57.906Z,56.80
2023-12-26T16:31:27.025Z,56.80
2023-12-26T16:33:56.082Z,56.80
2023-12-26T16:36:24.713Z,56.90
2023-12-26T16:38:54.156Z,56.90
2023-12-26T16:41:23.237Z,56.90
2023-12-26T16:43:52.681Z,56.90
2023-12-26T16:46:22.057Z,57.00
2023-12-26T16:48:51.729Z,57.00
2023-12-26T16:51:21.418Z,57.00
2023-12-26T16:53:50.832Z,57.10
2023-12-26T16:56:19.766Z,57.10
2023-12-26T16:58:48.792Z,57.10
2023-12-26T17:01:17.781Z,57.10
2023-12-26T17:03:47.274Z,57.20
2023-12-26T17:06:16.367Z,57.10
2023-12-26T17:08:45.462Z,57.20
2023-12-26T17:11:14.507Z,57.20
2023-12-26T17:13:43.397Z,57.20
2023-12-26T17:16:13.941Z,57.20
2023-12-26T17:18:45.522Z,57.30
2023-12-26T17:21:14.488Z,57.30
2023-12-26T17:23:43.880Z,57.40
2023-12-26T17:26:13.330Z,57.30
2023-12-26T17:28:42.241Z,57.40
2023-12-26T17:31:11.981Z,57.40
2023-12-26T17:33:41.867Z,57.40
2023-12-26T17:36:11.878Z,57.40
2023-12-26T17:38:41.551Z,57.50
2023-12-26T17:41:11.986Z,57.50
2023-12-26T17:43:40.719Z,57.60
2023-12-26T17:46:09.530Z,57.40
2023-12-26T17:48:39.127Z,57.60
2023-12-26T17:51:08.458Z,57.50
2023-12-26T17:53:41.081Z,57.50
2023-12-26T17:56:10.749Z,57.60
2023-12-26T17:58:40.193Z,57.50
2023-12-26T18:01:09.336Z,57.40
2023-12-26T18:03:40.420Z,57.40
2023-12-26T18:06:10.878Z,57.40
2023-12-26T18:08:39.936Z,57.50
2023-12-26T18:11:09.260Z,57.50
2023-12-26T18:13:38.665Z,57.50
2023-12-26T18:16:07.851Z,57.50
2023-12-26T18:18:37.465Z,57.50
2023-12-26T18:21:07.160Z,57.50
2023-12-26T18:23:36.279Z,57.50
2023-12-26T18:26:05.368Z,57.50
2023-12-26T18:28:34.422Z,57.50
2023-12-26T18:31:03.577Z,57.50
2023-12-26T18:33:33.073Z,57.50
2023-12-26T18:36:02.598Z,57.50
2023-12-26T18:38:32.123Z,57.50
2023-12-26T18:41:01.181Z,57.60
2023-12-26T18:43:30.754Z,57.60
2023-12-26T18:46:00.282Z,57.60
2023-12-26T18:48:29.416Z,57.70
2023-12-26T18:50:59.191Z,57.70
2023-12-26T18:53:28.872Z,57.70
2023-12-26T18:55:58.316Z,57.80
2023-12-26T18:58:27.203Z,57.80
2023-12-26T19:00:56.571Z,57.90
2023-12-26T19:03:25.601Z,57.80
2023-12-26T19:05:55.136Z,57.80
2023-12-26T19:08:24.701Z,57.90
2023-12-26T19:10:54.109Z,57.90
2023-12-26T19:13:23.645Z,58.00
2023-12-26T19:15:53.129Z,58.00
2023-12-26T19:18:22.649Z,58.00
2023-12-26T19:20:51.757Z,58.10
2023-12-26T19:23:20.884Z,58.10
2023-12-26T19:25:50.351Z,58.10
2023-12-26T19:28:19.594Z,58.10
2023-12-26T19:30:48.506Z,58.20
2023-12-26T19:33:18.274Z,58.20
2023-12-26T19:35:52.308Z,58.20
2023-12-26T19:38:21.994Z,58.20
2023-12-26T19:40:51.401Z,58.20
2023-12-26T19:43:20.336Z,58.20
2023-12-26T19:45:49.816Z,58.20
2023-12-26T19:48:19.032Z,58.90
2023-12-26T19:50:48.804Z,58.30
2023-12-26T19:53:18.433Z,58.30
2023-12-26T19:55:47.899Z,58.40
2023-12-26T19:58:17.136Z,58.30
2023-12-26T20:00:46.085Z,58.40
2023-12-26T20:03:22.918Z,58.40
2023-12-26T20:05:59.298Z,58.40
2023-12-26T20:08:29.871Z,58.50
2023-12-26T20:10:58.824Z,58.50
2023-12-26T20:13:28.776Z,58.50
2023-12-26T20:15:57.976Z,58.50
2023-12-26T20:18:27.257Z,58.50
2023-12-26T20:20:56.957Z,59.10
2023-12-26T20:23:26.339Z,58.50
2023-12-26T20:25:55.270Z,58.50
2023-12-26T20:28:24.294Z,58.50
2023-12-26T20:30:53.436Z,58.60
2023-12-26T20:33:22.286Z,58.50
2023-12-26T20:35:51.258Z,58.50
2023-12-26T20:38:20.702Z,58.50
2023-12-26T20:40:50.116Z,58.50
2023-12-26T20:43:19.601Z,58.50
2023-12-26T20:45:49.308Z,58.60
2023-12-26T20:48:18.950Z,58.50
2023-12-26T20:50:48.330Z,58.60
2023-12-26T20:53:17.284Z,58.60
2023-12-26T20:55:50.330Z,58.60
2023-12-26T20:58:19.472Z,58.60
2023-12-26T21:00:47.901Z,58.60
2023-12-26T21:03:17.004Z,58.50
2023-12-26T21:05:45.831Z,58.60
2023-12-26T21:08:14.771Z,58.70
2023-12-26T21:10:43.710Z,58.60
2023-12-26T21:13:13.225Z,58.60
2023-12-26T21:15:42.164Z,58.60
2023-12-26T21:18:11.849Z,58.60
2023-12-26T21:20:42.601Z,58.60
2023-12-26T21:23:12.822Z,58.60
2023-12-26T21:25:42.296Z,58.60
2023-12-26T21:28:11.595Z,58.60
2023-12-26T21:30:40.215Z,58.70
2023-12-26T21:33:09.825Z,58.70
2023-12-26T21:35:38.970Z,58.70
2023-12-26T21:38:07.808Z,58.60
2023-12-26T21:40:36.822Z,58.60
2023-12-26T21:43:06.093Z,58.70
2023-12-26T21:45:35.469Z,58.70
2023-12-26T21:48:04.314Z,59.30
2023-12-26T21:50:32.727Z,58.70
2023-12-26T21:53:02.263Z,58.70
2023-12-26T21:55:31.596Z,58.70
2023-12-26T21:58:01.001Z,58.70
2023-12-26T22:00:30.063Z,58.70
2023-12-26T22:02:59.731Z,58.70
2023-12-26T22:05:28.756Z,58.70
2023-12-26T22:07:58.318Z,58.80
2023-12-26T22:10:27.969Z,58.70
2023-12-26T22:12:57.338Z,58.70
2023-12-26T22:15:26.835Z,58.80
2023-12-26T22:17:56.620Z,58.70
2023-12-26T22:20:25.792Z,58.80
2023-12-26T22:22:55.189Z,58.80
2023-12-26T22:25:24.690Z,58.80
2023-12-26T22:27:53.479Z,58.70
2023-12-26T22:30:21.921Z,58.70
2023-12-26T22:32:50.998Z,58.80
2023-12-26T22:35:20.544Z,58.70
2023-12-26T22:37:49.854Z,58.70
2023-12-26T22:40:19.285Z,58.80
2023-12-26T22:42:48.732Z,58.80
2023-12-26T22:45:18.317Z,58.80
2023-12-26T22:47:47.579Z,58.80
2023-12-26T22:50:16.498Z,58.80
2023-12-26T22:52:46.039Z,58.80
2023-12-26T22:55:14.929Z,58.80
2023-12-26T22:57:43.914Z,58.80
2023-12-26T23:00:12.876Z,58.80
2023-12-26T23:02:42.374Z,58.80
2023-12-26T23:05:11.782Z,58.80
2023-12-26T23:07:40.247Z,58.80
2023-12-26T23:10:09.643Z,58.80
2023-12-26T23:12:39.273Z,58.80
2023-12-26T23:15:08.266Z,58.80
2023-12-26T23:17:37.677Z,59.40
2023-12-26T23:20:07.224Z,58.80
2023-12-26T23:22:36.225Z,58.80
2023-12-26T23:25:05.200Z,58.80
2023-12-26T23:27:34.707Z,58.80
2023-12-26T23:30:03.548Z,58.80
2023-12-26T23:32:32.512Z,58.80
2023-12-26T23:35:02.133Z,58.80
2023-12-26T23:37:31.673Z,58.80
2023-12-26T23:40:01.030Z,58.80
2023-12-26T23:42:30.531Z,58.80
2023-12-26T23:44:59.617Z,58.80
2023-12-26T23:47:28.616Z,58.90
2023-12-26T23:49:57.585Z,58.80
2023-12-26T23:52:26.688Z,58.80
2023-12-26T23:54:55.598Z,58.80
2023-12-26T23:57:24.615Z,58.80
2023-12-26T23:59:53.973Z,58.80
